createdAt,value
2018-05-06T00:02:17.958Z,97.70
2018-05-06T00:04:46.089Z,97.50
2018-05-06T00:07:14.950Z,98.30
2018-05-06T00:09:43.054Z,98.00
2018-05-06T00:12:11.152Z,97.90
2018-05-06T00:14:39.239Z,97.60
2018-05-06T00:17:07.346Z,97.60
2018-05-06T00:19:36.200Z,97.60
2018-05-06T00:22:04.331Z,97.60
2018-05-06T00:24:33.253Z,98.20
2018-05-06T00:27:01.353Z,98.30
2018-05-06T00:29:29.443Z,98.50
2018-05-06T00:31:57.538Z,98.90
2018-05-06T00:34:25.639Z,99.10
2018-05-06T00:36:53.736Z,99.10
2018-05-06T00:39:21.907Z,99.30
2018-05-06T00:41:50.007Z,99.10
2018-05-06T00:44:18.167Z,99.50
2018-05-06T00:46:46.281Z,99.40
2018-05-06T00:49:15.141Z,99.00
2018-05-06T00:51:43.243Z,98.90
2018-05-06T00:57:10.130Z,98.70
2018-05-06T00:59:38.196Z,98.80
2018-05-06T01:02:06.240Z,98.80
2018-05-06T01:04:35.056Z,99.20
2018-05-06T01:07:03.876Z,99.50
2018-05-06T01:09:31.942Z,99.50
2018-05-06T01:12:00.763Z,99.90
2018-05-06T01:14:28.815Z,99.90
2018-05-06T01:16:57.633Z,99.90
2018-05-06T01:19:25.678Z,99.90
2018-05-06T01:21:53.728Z,99.90
2018-05-06T01:24:21.776Z,99.90
2018-05-06T01:26:50.606Z,99.90
2018-05-06T01:29:18.665Z,99.90
2018-05-06T01:31:46.723Z,99.90
2018-05-06T01:34:14.776Z,99.80
2018-05-06T01:36:42.830Z,99.70
2018-05-06T01:39:10.886Z,99.60
2018-05-06T01:41:39.715Z,99.40
2018-05-06T01:44:07.771Z,99.40
2018-05-06T01:46:35.809Z,99.70
2018-05-06T01:49:03.862Z,99.40
2018-05-06T01:51:31.927Z,99.60
2018-05-06T01:54:00.745Z,99.80
2018-05-06T01:56:28.793Z,99.80
2018-05-06T01:58:56.828Z,99.80
2018-05-06T02:01:24.875Z,99.60
2018-05-06T02:03:52.986Z,99.90
2018-05-06T02:06:20.972Z,99.90
2018-05-06T02:08:49.022Z,99.90
2018-05-06T02:11:17.842Z,99.90
2018-05-06T02:13:46.674Z,99.90
2018-05-06T02:16:14.698Z,99.90
2018-05-06T02:18:42.750Z,99.90
2018-05-06T02:21:10.828Z,99.90
2018-05-06T02:23:38.879Z,99.90
2018-05-06T02:26:07.703Z,99.90
2018-05-06T02:28:35.755Z,99.90
2018-05-06T02:31:03.827Z,99.90
2018-05-06T02:33:32.638Z,99.90
2018-05-06T02:36:01.478Z,99.90
2018-05-06T02:38:29.543Z,99.90
2018-05-06T02:40:58.345Z,99.90
2018-05-06T02:43:26.407Z,99.90
2018-05-06T02:45:54.455Z,99.90
2018-05-06T02:48:22.519Z,99.90
2018-05-06T02:50:50.565Z,99.90
2018-05-06T02:53:19.388Z,99.90
2018-05-06T02:55:47.431Z,99.90
2018-05-06T02:58:15.483Z,99.90
2018-05-06T03:00:43.530Z,99.90
2018-05-06T03:03:11.588Z,99.90
2018-05-06T03:05:39.634Z,99.90
2018-05-06T03:08:07.682Z,99.90
2018-05-06T03:10:35.729Z,99.90
2018-05-06T03:13:04.545Z,99.90
2018-05-06T03:15:32.594Z,99.90
2018-05-06T03:18:00.644Z,99.90
2018-05-06T03:20:28.686Z,99.90
2018-05-06T03:22:56.730Z,99.90
2018-05-06T03:25:24.776Z,99.90
2018-05-06T03:27:53.595Z,99.90
2018-05-06T03:30:21.638Z,99.90
2018-05-06T03:32:49.715Z,99.90
2018-05-06T03:35:18.539Z,99.90
2018-05-06T03:37:47.354Z,99.90
2018-05-06T03:40:15.402Z,99.90
2018-05-06T03:42:43.518Z,99.90
2018-05-06T03:45:11.528Z,99.90
2018-05-06T03:47:39.579Z,99.90
2018-05-06T03:50:08.380Z,99.90
2018-05-06T03:52:37.207Z,99.90
2018-05-06T03:55:05.255Z,99.90
2018-05-06T03:57:45.134Z,99.90
2018-05-06T04:00:25.865Z,99.90
2018-05-06T04:02:53.848Z,99.90
2018-05-06T04:05:21.886Z,99.90
2018-05-06T04:07:50.733Z,99.90
2018-05-06T04:10:18.780Z,99.90
2018-05-06T04:12:46.836Z,99.90
2018-05-06T04:15:15.656Z,99.90
2018-05-06T04:17:44.478Z,99.90
2018-05-06T04:20:12.535Z,99.90
2018-05-06T04:22:41.351Z,99.90
2018-05-06T04:25:10.168Z,99.90
2018-05-06T04:27:38.214Z,99.90
2018-05-06T04:30:07.032Z,99.90
2018-05-06T04:32:35.841Z,99.90
2018-05-06T04:35:03.893Z,99.90
2018-05-06T04:37:31.944Z,99.90
2018-05-06T04:39:59.986Z,99.90
2018-05-06T04:42:28.035Z,99.90
2018-05-06T04:44:56.083Z,99.80
2018-05-06T04:47:24.136Z,99.50
2018-05-06T04:49:52.980Z,98.00
2018-05-06T04:52:20.999Z,97.90
2018-05-06T04:54:49.099Z,98.00
2018-05-06T04:57:17.117Z,96.00
2018-05-06T04:59:45.165Z,95.80
2018-05-06T05:02:13.976Z,94.70
2018-05-06T05:04:42.023Z,94.60
2018-05-06T05:07:10.063Z,93.40
2018-05-06T05:09:38.113Z,92.50
2018-05-06T05:12:06.919Z,90.20
2018-05-06T05:14:35.733Z,89.50
2018-05-06T05:17:04.531Z,87.50
2018-05-06T05:19:33.349Z,84.30
2018-05-06T05:22:01.393Z,84.30
2018-05-06T05:24:29.430Z,84.60
2018-05-06T05:26:57.473Z,84.30
2018-05-06T05:29:26.291Z,84.50
2018-05-06T05:31:54.336Z,83.80
2018-05-06T05:34:22.478Z,81.40
2018-05-06T05:36:50.436Z,80.20
2018-05-06T05:39:19.281Z,76.70
2018-05-06T05:41:47.299Z,76.60
2018-05-06T05:44:15.347Z,73.50
2018-05-06T05:46:43.402Z,73.60
2018-05-06T05:49:11.439Z,73.90
2018-05-06T05:51:39.490Z,71.50
2018-05-06T05:54:07.538Z,71.40
2018-05-06T05:56:36.355Z,71.80
2018-05-06T05:59:04.396Z,71.60
2018-05-06T06:01:32.581Z,67.90
2018-05-06T06:04:00.567Z,66.90
2018-05-06T06:06:28.620Z,68.80
2018-05-06T06:08:56.658Z,65.90
2018-05-06T06:11:25.473Z,62.30
2018-05-06T06:13:53.522Z,62.20
2018-05-06T06:16:21.568Z,64.20
2018-05-06T06:18:49.604Z,63.10
2018-05-06T06:21:18.414Z,63.50
2018-05-06T06:23:47.212Z,65.00
2018-05-06T06:26:16.024Z,63.40
2018-05-06T06:28:44.122Z,63.40
2018-05-06T06:31:12.161Z,60.70
2018-05-06T06:33:40.223Z,59.10
2018-05-06T06:36:08.260Z,58.90
2018-05-06T06:38:36.304Z,59.30
2018-05-06T06:41:04.349Z,57.00
2018-05-06T06:43:32.395Z,57.30
2018-05-06T06:46:01.211Z,59.40
2018-05-06T06:48:29.250Z,59.40
2018-05-06T06:50:58.802Z,59.20
2018-05-06T06:53:27.910Z,57.10
2018-05-06T06:56:03.853Z,56.00
2018-05-06T06:58:32.661Z,59.20
2018-05-06T07:01:00.703Z,59.20
2018-05-06T07:03:28.753Z,57.00
2018-05-06T07:05:57.605Z,54.90
2018-05-06T07:08:25.610Z,54.80
2018-05-06T07:10:53.641Z,57.20
2018-05-06T07:13:21.696Z,57.40
2018-05-06T07:15:50.501Z,55.90
2018-05-06T07:18:18.557Z,55.90
2018-05-06T07:20:46.611Z,55.50
2018-05-06T07:23:14.662Z,52.40
2018-05-06T07:25:42.703Z,53.10
2018-05-06T07:28:10.758Z,52.50
2018-05-06T07:30:38.796Z,55.50
2018-05-06T07:33:07.612Z,52.70
2018-05-06T07:35:36.408Z,53.70
2018-05-06T07:38:04.454Z,53.80
2018-05-06T07:40:32.506Z,55.40
2018-05-06T07:43:00.541Z,57.20
2018-05-06T07:45:28.585Z,55.20
2018-05-06T07:47:56.643Z,53.50
2018-05-06T07:50:24.682Z,52.50
2018-05-06T07:52:52.732Z,52.90
2018-05-06T07:55:20.772Z,53.10
2018-05-06T07:57:49.587Z,54.40
2018-05-06T08:00:18.392Z,52.50
2018-05-06T08:02:46.438Z,52.40
2018-05-06T08:05:14.496Z,52.30
2018-05-06T08:07:42.548Z,52.30
2018-05-06T08:10:10.588Z,50.40
2018-05-06T08:12:38.635Z,50.60
2018-05-06T08:15:06.676Z,51.50
2018-05-06T08:17:35.487Z,51.70
2018-05-06T08:20:03.554Z,51.70
2018-05-06T08:22:32.402Z,50.50
2018-05-06T08:25:00.495Z,50.10
2018-05-06T08:27:28.599Z,48.90
2018-05-06T08:29:56.688Z,50.80
2018-05-06T08:32:26.288Z,54.40
2018-05-06T08:34:54.356Z,54.30
2018-05-06T08:37:22.452Z,51.10
2018-05-06T08:39:50.555Z,53.10
2018-05-06T08:42:18.624Z,56.90
2018-05-06T08:44:46.737Z,54.90
2018-05-06T08:47:14.834Z,54.60
2018-05-06T08:49:43.716Z,55.00
2018-05-06T08:52:11.799Z,54.60
2018-05-06T08:54:39.904Z,52.40
2018-05-06T08:57:07.981Z,53.50
2018-05-06T08:59:36.211Z,52.10
2018-05-06T09:02:04.215Z,53.00
2018-05-06T09:04:32.283Z,53.80
2018-05-06T09:07:00.394Z,54.80
2018-05-06T09:09:28.480Z,52.10
2018-05-06T09:11:56.625Z,50.50
2018-05-06T09:14:24.733Z,53.80
2018-05-06T09:16:52.823Z,53.40
2018-05-06T09:19:20.982Z,50.10
2018-05-06T09:21:49.075Z,51.70
2018-05-06T09:24:17.198Z,49.80
2018-05-06T09:26:45.314Z,49.50
2018-05-06T09:29:13.377Z,50.60
2018-05-06T09:31:41.478Z,49.40
2018-05-06T09:34:09.571Z,49.90
2018-05-06T09:36:37.662Z,50.20
2018-05-06T09:39:05.759Z,53.90
2018-05-06T09:41:33.856Z,51.80
2018-05-06T09:44:01.942Z,51.10
2018-05-06T09:46:30.086Z,52.80
2018-05-06T09:48:58.181Z,51.70
2018-05-06T09:51:26.265Z,53.10
2018-05-06T09:53:54.471Z,53.70
2018-05-06T09:56:22.511Z,54.10
2018-05-06T09:58:50.579Z,50.50
2018-05-06T10:01:18.712Z,49.20
2018-05-06T10:03:47.583Z,47.10
2018-05-06T10:06:15.681Z,47.10
2018-05-06T10:08:43.757Z,50.00
2018-05-06T10:11:11.854Z,50.50
2018-05-06T10:13:39.947Z,53.50
2018-05-06T10:16:08.091Z,49.70
2018-05-06T10:18:36.221Z,49.20
2018-05-06T10:21:05.801Z,49.20
2018-05-06T10:23:33.905Z,49.20
2018-05-06T10:26:02.005Z,49.90
2018-05-06T10:28:30.871Z,47.50
2018-05-06T10:30:59.368Z,50.10
2018-05-06T10:33:27.534Z,50.60
2018-05-06T10:35:55.724Z,46.30
2018-05-06T10:38:23.788Z,48.60
2018-05-06T10:40:51.871Z,49.70
2018-05-06T10:43:19.983Z,48.90
2018-05-06T10:45:48.079Z,51.80
2018-05-06T10:48:16.176Z,49.20
2018-05-06T10:50:44.277Z,49.70
2018-05-06T10:53:12.320Z,47.80
2018-05-06T10:55:40.409Z,47.50
2018-05-06T10:58:08.510Z,45.70
2018-05-06T11:00:36.609Z,46.60
2018-05-06T11:03:04.726Z,46.40
2018-05-06T11:05:32.816Z,47.30
2018-05-06T11:08:00.948Z,47.70
2018-05-06T11:10:29.181Z,45.90
2018-05-06T11:12:57.233Z,48.10
2018-05-06T11:15:25.352Z,44.70
2018-05-06T11:17:54.330Z,44.10
2018-05-06T11:20:23.105Z,45.60
2018-05-06T11:22:51.197Z,45.50
2018-05-06T11:25:19.311Z,48.90
2018-05-06T11:27:48.904Z,44.90
2018-05-06T11:30:17.018Z,44.90
2018-05-06T11:32:45.915Z,45.70
2018-05-06T11:35:14.752Z,46.70
2018-05-06T11:37:42.872Z,46.60
2018-05-06T11:40:10.953Z,43.70
2018-05-06T11:42:39.070Z,47.00
2018-05-06T11:45:07.168Z,45.30
2018-05-06T11:47:35.279Z,46.60
2018-05-06T11:50:03.393Z,44.90
2018-05-06T11:52:31.476Z,43.50
2018-05-06T11:54:59.585Z,40.80
2018-05-06T11:57:27.643Z,42.30
2018-05-06T11:59:55.754Z,43.00
2018-05-06T12:02:23.918Z,43.70
2018-05-06T12:04:52.014Z,43.40
2018-05-06T12:07:20.147Z,46.50
2018-05-06T12:09:48.250Z,44.10
2018-05-06T12:12:16.387Z,41.60
2018-05-06T12:14:44.490Z,42.30
2018-05-06T12:17:13.345Z,40.70
2018-05-06T12:19:41.440Z,40.50
2018-05-06T12:22:09.512Z,42.00
2018-05-06T12:24:37.595Z,39.90
2018-05-06T12:27:05.702Z,42.10
2018-05-06T12:29:33.808Z,43.80
2018-05-06T12:32:02.644Z,40.30
2018-05-06T12:34:30.732Z,40.20
2018-05-06T12:36:58.856Z,41.00
2018-05-06T12:39:26.972Z,41.30
2018-05-06T12:41:55.911Z,40.10
2018-05-06T12:44:23.982Z,40.00
2018-05-06T12:46:52.079Z,38.20
2018-05-06T12:49:20.187Z,39.70
2018-05-06T12:51:48.291Z,37.90
2018-05-06T12:54:16.401Z,39.10
2018-05-06T12:56:45.233Z,42.30
2018-05-06T12:59:13.360Z,42.30
2018-05-06T13:01:41.461Z,41.30
2018-05-06T13:04:09.557Z,42.30
2018-05-06T13:06:38.411Z,43.00
2018-05-06T13:09:06.511Z,43.00
2018-05-06T13:11:34.617Z,44.10
2018-05-06T13:14:03.505Z,44.20
2018-05-06T13:16:31.565Z,43.70
2018-05-06T13:18:59.693Z,43.30
2018-05-06T13:21:28.380Z,40.10
2018-05-06T13:23:56.551Z,44.50
2018-05-06T13:26:24.669Z,44.40
2018-05-06T13:28:52.746Z,44.30
2018-05-06T13:31:20.816Z,44.90
2018-05-06T13:33:49.728Z,42.60
2018-05-06T13:36:17.884Z,43.30
2018-05-06T13:38:45.967Z,41.60
2018-05-06T13:41:14.081Z,41.50
2018-05-06T13:43:42.171Z,43.40
2018-05-06T13:46:10.253Z,42.10
2018-05-06T13:48:38.330Z,42.40
2018-05-06T13:51:06.469Z,42.60
2018-05-06T13:53:34.572Z,41.50
2018-05-06T13:56:02.721Z,44.60
2018-05-06T13:58:31.554Z,39.80
2018-05-06T14:00:59.671Z,39.70
2018-05-06T14:03:27.753Z,40.40
2018-05-06T14:05:55.876Z,40.90
2018-05-06T14:08:24.742Z,42.90
2018-05-06T14:10:52.837Z,42.80
2018-05-06T14:13:20.902Z,43.90
2018-05-06T14:15:49.114Z,41.60
2018-05-06T14:18:17.138Z,39.10
2018-05-06T14:20:45.283Z,39.10
2018-05-06T14:23:14.147Z,38.90
2018-05-06T14:25:42.249Z,38.30
2018-05-06T14:28:10.343Z,40.60
2018-05-06T14:30:38.448Z,41.40
2018-05-06T14:33:07.310Z,42.80
2018-05-06T14:35:35.390Z,42.70
2018-05-06T14:38:03.491Z,41.60
2018-05-06T14:40:31.607Z,41.30
2018-05-06T14:43:00.519Z,41.20
2018-05-06T14:45:29.386Z,39.30
2018-05-06T14:48:09.306Z,39.30
2018-05-06T14:50:37.433Z,41.00
2018-05-06T14:53:05.549Z,40.50
2018-05-06T14:55:33.618Z,41.70
2018-05-06T14:58:02.484Z,39.50
2018-05-06T15:00:30.584Z,39.40
2018-05-06T15:02:58.678Z,40.00
2018-05-06T15:05:26.809Z,40.20
2018-05-06T15:07:54.910Z,41.50
2018-05-06T15:10:23.100Z,41.60
2018-05-06T15:12:51.127Z,41.80
2018-05-06T15:15:19.252Z,42.20
2018-05-06T15:17:47.374Z,42.60
2018-05-06T15:20:15.499Z,43.00
2018-05-06T15:22:43.610Z,42.40
2018-05-06T15:25:11.719Z,42.90
2018-05-06T15:27:39.815Z,41.90
2018-05-06T15:30:07.919Z,41.80
2018-05-06T15:32:36.028Z,42.70
2018-05-06T15:35:04.899Z,42.10
2018-05-06T15:37:33.011Z,42.10
2018-05-06T15:40:01.869Z,41.50
2018-05-06T15:42:29.981Z,41.50
2018-05-06T15:44:58.078Z,41.60
2018-05-06T15:47:26.953Z,43.70
2018-05-06T15:49:55.054Z,43.10
2018-05-06T15:52:23.181Z,41.90
2018-05-06T15:54:51.291Z,41.80
2018-05-06T15:57:19.387Z,41.90
2018-05-06T15:59:47.501Z,41.40
2018-05-06T16:05:32.117Z,42.20
2018-05-06T16:08:00.934Z,40.50
2018-05-06T16:10:29.758Z,40.00
2018-05-06T16:12:57.810Z,39.90
2018-05-06T16:15:26.634Z,41.00
2018-05-06T16:17:54.662Z,41.00
2018-05-06T16:20:22.718Z,40.10
2018-05-06T16:22:50.776Z,41.20
2018-05-06T16:25:19.608Z,40.10
2018-05-06T16:27:47.677Z,40.00
2018-05-06T16:30:15.801Z,39.20
2018-05-06T16:32:43.895Z,39.60
2018-05-06T16:35:12.755Z,39.50
2018-05-06T16:37:40.913Z,39.50
2018-05-06T16:40:08.983Z,39.90
2018-05-06T16:42:37.057Z,40.20
2018-05-06T16:45:05.197Z,39.70
2018-05-06T16:47:33.308Z,40.70
2018-05-06T16:50:01.427Z,39.00
2018-05-06T16:52:30.283Z,38.70
2018-05-06T16:54:58.379Z,38.60
2018-05-06T16:57:26.590Z,39.50
2018-05-06T16:59:54.618Z,39.80
2018-05-06T17:02:22.698Z,40.00
2018-05-06T17:04:50.885Z,40.00
2018-05-06T17:07:19.021Z,39.30
2018-05-06T17:09:47.176Z,38.40
2018-05-06T17:12:15.296Z,39.50
2018-05-06T17:14:43.420Z,39.80
2018-05-06T17:17:11.514Z,39.30
2018-05-06T17:19:39.623Z,39.20
2018-05-06T17:22:07.802Z,39.50
2018-05-06T17:24:35.884Z,39.00
2018-05-06T17:27:03.987Z,39.30
2018-05-06T17:29:32.084Z,38.80
2018-05-06T17:32:00.245Z,39.60
2018-05-06T17:34:29.064Z,40.10
2018-05-06T17:36:57.195Z,39.40
2018-05-06T17:39:26.664Z,39.10
2018-05-06T17:41:54.774Z,39.10
2018-05-06T17:44:22.854Z,39.50
2018-05-06T17:46:50.955Z,39.80
2018-05-06T17:49:19.814Z,39.70
2018-05-06T17:51:47.932Z,39.70
2018-05-06T17:54:16.780Z,40.50
2018-05-06T17:56:44.893Z,40.40
2018-05-06T17:59:12.980Z,39.70
2018-05-06T18:01:41.090Z,40.60
2018-05-06T18:04:09.163Z,40.10
2018-05-06T18:06:37.279Z,40.40
2018-05-06T18:09:05.379Z,39.50
2018-05-06T18:11:33.523Z,39.60
2018-05-06T18:14:01.610Z,39.70
2018-05-06T18:16:29.729Z,40.00
2018-05-06T18:18:57.836Z,40.70
2018-05-06T18:21:25.921Z,40.90
2018-05-06T18:23:54.010Z,40.90
2018-05-06T18:26:22.131Z,41.50
2018-05-06T18:28:50.398Z,41.80
2018-05-06T18:31:18.584Z,41.40
2018-05-06T18:33:46.755Z,41.40
2018-05-06T18:36:14.865Z,41.90
2018-05-06T18:38:42.974Z,42.60
2018-05-06T18:41:11.839Z,42.50
2018-05-06T18:43:39.944Z,42.50
2018-05-06T18:46:08.031Z,43.20
2018-05-06T18:48:36.138Z,43.90
2018-05-06T18:51:04.967Z,45.20
2018-05-06T18:53:33.077Z,45.20
2018-05-06T18:56:01.135Z,44.60
2018-05-06T18:58:29.246Z,45.10
2018-05-06T19:00:57.350Z,45.80
2018-05-06T19:03:25.467Z,46.20
2018-05-06T19:05:54.302Z,46.90
2018-05-06T19:08:22.484Z,46.90
2018-05-06T19:10:50.486Z,47.70
2018-05-06T19:13:19.349Z,49.10
2018-05-06T19:15:47.496Z,49.10
2018-05-06T19:18:15.620Z,49.30
2018-05-06T19:20:44.497Z,49.80
2018-05-06T19:23:12.610Z,49.80
2018-05-06T19:25:41.460Z,51.50
2018-05-06T19:28:09.580Z,51.40
2018-05-06T19:30:37.661Z,52.10
2018-05-06T19:33:06.592Z,53.00
2018-05-06T19:35:34.692Z,53.00
2018-05-06T19:38:02.763Z,53.80
2018-05-06T19:40:30.867Z,53.80
2018-05-06T19:42:59.012Z,54.20
2018-05-06T19:45:27.891Z,55.60
2018-05-06T19:47:56.002Z,55.60
2018-05-06T19:50:24.839Z,59.50
2018-05-06T19:52:52.964Z,59.50
2018-05-06T19:55:21.831Z,61.30
2018-05-06T19:57:49.974Z,61.30
2018-05-06T20:00:18.073Z,62.80
2018-05-06T20:02:46.248Z,63.30
2018-05-06T20:05:15.069Z,65.10
2018-05-06T20:07:43.166Z,64.80
2018-05-06T20:10:11.264Z,66.40
2018-05-06T20:12:39.365Z,67.60
2018-05-06T20:15:07.503Z,68.80
2018-05-06T20:17:35.685Z,69.40
2018-05-06T20:20:04.556Z,71.00
2018-05-06T20:22:32.649Z,70.80
2018-05-06T20:25:00.813Z,71.50
2018-05-06T20:27:28.907Z,73.30
2018-05-06T20:29:57.015Z,73.50
2018-05-06T20:32:25.065Z,73.30
2018-05-06T20:34:53.167Z,75.20
2018-05-06T20:37:21.268Z,75.50
2018-05-06T20:39:50.144Z,76.60
2018-05-06T20:42:18.254Z,76.60
2018-05-06T20:44:46.373Z,76.80
2018-05-06T20:47:14.466Z,77.30
2018-05-06T20:49:42.561Z,78.10
2018-05-06T20:52:10.641Z,79.10
2018-05-06T20:54:38.743Z,79.70
2018-05-06T20:57:06.861Z,80.60
2018-05-06T20:59:35.766Z,82.40
2018-05-06T21:02:03.903Z,82.30
2018-05-06T21:04:32.799Z,82.90
2018-05-06T21:07:00.883Z,83.60
2018-05-06T21:09:28.979Z,83.40
2018-05-06T21:11:57.069Z,83.60
2018-05-06T21:14:25.190Z,84.40
2018-05-06T21:16:53.284Z,84.30
2018-05-06T21:19:22.159Z,86.30
2018-05-06T21:21:50.322Z,86.30
2018-05-06T21:24:18.479Z,86.20
2018-05-06T21:26:47.327Z,88.10
2018-05-06T21:29:15.455Z,88.00
2018-05-06T21:31:44.310Z,89.60
2018-05-06T21:34:12.474Z,89.60
2018-05-06T21:36:40.555Z,90.00
2018-05-06T21:39:08.667Z,90.20
2018-05-06T21:41:36.759Z,90.30
2018-05-06T21:44:04.833Z,90.60
2018-05-06T21:46:32.956Z,90.90
2018-05-06T21:49:01.847Z,90.70
2018-05-06T21:51:30.012Z,90.70
2018-05-06T21:53:58.137Z,91.10
2018-05-06T21:56:26.972Z,90.80
2018-05-06T21:58:55.051Z,90.80
2018-05-06T22:01:23.146Z,90.80
2018-05-06T22:03:51.252Z,91.10
2018-05-06T22:06:19.388Z,91.80
2018-05-06T22:08:48.283Z,92.50
2018-05-06T22:11:17.122Z,92.60
2018-05-06T22:13:45.162Z,92.60
2018-05-06T22:16:14.033Z,93.00
2018-05-06T22:18:42.108Z,93.00
2018-05-06T22:21:10.241Z,93.00
2018-05-06T22:23:39.133Z,93.50
2018-05-06T22:26:07.215Z,93.40
2018-05-06T22:28:35.371Z,93.50
2018-05-06T22:31:03.511Z,93.50
2018-05-06T22:33:31.628Z,93.80
2018-05-06T22:35:59.772Z,94.50
2018-05-06T22:38:28.643Z,94.80
2018-05-06T22:40:56.781Z,94.80
2018-05-06T22:43:24.876Z,95.10
2018-05-06T22:45:52.945Z,95.10
2018-05-06T22:48:21.042Z,95.30
2018-05-06T22:50:49.164Z,95.50
2018-05-06T22:53:17.277Z,96.00
2018-05-06T22:55:46.159Z,95.90
2018-05-06T22:58:14.239Z,95.80
2018-05-06T23:00:42.395Z,95.90
2018-05-06T23:03:10.523Z,95.60
2018-05-06T23:05:38.700Z,95.30
2018-05-06T23:08:06.704Z,95.30
2018-05-06T23:10:35.563Z,95.50
2018-05-06T23:13:03.677Z,95.40
2018-05-06T23:15:31.795Z,95.40
2018-05-06T23:17:59.891Z,95.30
2018-05-06T23:20:27.978Z,95.70
2018-05-06T23:22:56.075Z,95.00
2018-05-06T23:25:24.167Z,95.30
2018-05-06T23:27:52.267Z,95.30
2018-05-06T23:30:20.373Z,95.30
2018-05-06T23:32:48.450Z,95.40
2018-05-06T23:35:16.566Z,95.70
2018-05-06T23:37:45.440Z,96.50
2018-05-06T23:40:14.338Z,96.60
2018-05-06T23:42:42.441Z,96.60
2018-05-06T23:45:11.300Z,97.00
2018-05-06T23:47:39.391Z,97.00
2018-05-06T23:50:07.486Z,97.10
2018-05-06T23:52:35.593Z,97.20
2018-05-06T23:55:03.671Z,97.50
2018-05-06T23:57:31.778Z,97.70
